createdAt,value
2023-04-12T00:00:29.600Z,41.64
2023-04-12T00:01:29.633Z,41.67
2023-04-12T00:02:29.785Z,41.67
2023-04-12T00:03:29.860Z,41.67
2023-04-12T00:04:29.921Z,41.62
2023-04-12T00:05:29.807Z,41.66
2023-04-12T00:06:29.851Z,41.65
2023-04-12T00:07:29.900Z,41.63
2023-04-12T00:08:29.947Z,41.62
2023-04-12T00:09:29.992Z,41.64
2023-04-12T00:10:30.031Z,41.63
2023-04-12T00:11:30.079Z,41.65
2023-04-12T00:12:30.131Z,41.61
2023-04-12T00:13:30.175Z,41.61
2023-04-12T00:14:30.226Z,41.60
2023-04-12T00:15:30.263Z,41.60
2023-04-12T00:16:30.330Z,41.61
2023-04-12T00:17:30.397Z,41.59
2023-04-12T00:18:30.419Z,41.57
2023-04-12T00:19:30.491Z,41.59
2023-04-12T00:20:30.545Z,41.59
2023-04-12T00:21:30.573Z,41.58
2023-04-12T00:22:30.630Z,41.56
2023-04-12T00:23:30.672Z,41.55
2023-04-12T00:24:30.730Z,41.55
2023-04-12T00:25:30.780Z,41.56
2023-04-12T00:26:30.816Z,41.57
2023-04-12T00:27:30.862Z,41.57
2023-04-12T00:28:30.914Z,41.54
2023-04-12T00:29:30.971Z,41.52
2023-04-12T00:30:31.004Z,41.51
2023-04-12T00:31:31.086Z,41.53
2023-04-12T00:32:31.148Z,41.49
2023-04-12T00:33:31.152Z,41.50
2023-04-12T00:34:31.187Z,41.47
2023-04-12T00:35:31.295Z,41.48
2023-04-12T00:36:31.287Z,41.49
2023-04-12T00:37:31.334Z,41.47
2023-04-12T00:38:31.381Z,41.49
2023-04-12T00:39:31.432Z,41.49
2023-04-12T00:40:31.477Z,41.46
2023-04-12T00:41:31.535Z,41.46
2023-04-12T00:42:31.573Z,41.48
2023-04-12T00:43:31.628Z,41.45
2023-04-12T00:44:31.671Z,41.42
2023-04-12T00:45:31.716Z,41.46
2023-04-12T00:46:31.821Z,41.46
2023-04-12T00:47:31.830Z,41.43
2023-04-12T00:48:31.882Z,41.43
2023-04-12T00:49:31.907Z,41.44
2023-04-12T00:50:31.961Z,41.41
2023-04-12T00:51:32.019Z,41.41
2023-04-12T00:52:32.056Z,41.41
2023-04-12T00:53:32.118Z,41.40
2023-04-12T00:54:32.138Z,41.39
2023-04-12T00:55:32.196Z,41.38
2023-04-12T00:56:32.253Z,41.41
2023-04-12T00:57:32.348Z,41.40
2023-04-12T00:58:32.343Z,41.38
2023-04-12T00:59:32.405Z,41.38
2023-04-12T01:00:32.465Z,41.38
2023-04-12T01:01:32.510Z,41.39
2023-04-12T01:02:32.721Z,41.39
2023-04-12T01:03:32.817Z,41.40
2023-04-12T01:04:32.644Z,41.36
2023-04-12T01:05:32.706Z,41.39
2023-04-12T01:06:32.748Z,41.36
2023-04-12T01:07:32.809Z,41.36
2023-04-12T01:08:32.874Z,41.36
2023-04-12T01:09:32.895Z,41.36
2023-04-12T01:10:32.942Z,41.35
2023-04-12T01:11:33.012Z,41.33
2023-04-12T01:12:33.059Z,41.35
2023-04-12T01:13:33.126Z,41.35
2023-04-12T01:14:33.159Z,41.33
2023-04-12T01:15:33.202Z,41.32
2023-04-12T01:16:33.306Z,41.34
2023-04-12T01:17:33.308Z,41.31
2023-04-12T01:18:33.363Z,41.31
2023-04-12T01:19:33.419Z,41.32
2023-04-12T01:20:33.458Z,41.28
2023-04-12T01:21:33.506Z,41.33
2023-04-12T01:22:33.554Z,41.29
2023-04-12T01:23:33.622Z,41.29
2023-04-12T01:24:33.674Z,41.30
2023-04-12T01:25:33.700Z,41.31
2023-04-12T01:26:33.762Z,41.27
2023-04-12T01:27:33.800Z,41.28
2023-04-12T01:28:33.849Z,41.27
2023-04-12T01:29:33.904Z,41.28
2023-04-12T01:30:33.952Z,41.26
2023-04-12T01:31:34.081Z,41.24
2023-04-12T01:32:34.080Z,41.24
2023-04-12T01:33:34.094Z,41.21
2023-04-12T01:34:34.144Z,41.24
2023-04-12T01:35:35.440Z,41.18
2023-04-12T01:36:34.252Z,41.23
2023-04-12T01:37:34.278Z,41.18
2023-04-12T01:38:34.320Z,41.18
2023-04-12T01:39:34.374Z,41.18
2023-04-12T01:40:34.414Z,41.18
2023-04-12T01:41:34.467Z,41.16
2023-04-12T01:42:34.518Z,41.14
2023-04-12T01:43:34.560Z,41.15
2023-04-12T01:44:34.609Z,41.15
2023-04-12T01:45:34.737Z,41.15
2023-04-12T01:46:34.696Z,41.15
2023-04-12T01:47:34.775Z,41.13
2023-04-12T01:48:34.788Z,41.11
2023-04-12T01:49:34.822Z,41.08
2023-04-12T01:50:34.868Z,41.09
2023-04-12T01:51:34.994Z,41.09
2023-04-12T01:52:34.956Z,41.06
2023-04-12T01:53:35.004Z,41.04
2023-04-12T01:54:35.050Z,41.06
2023-04-12T01:55:35.077Z,41.04
2023-04-12T01:56:35.114Z,41.04
2023-04-12T01:57:35.157Z,41.01
2023-04-12T01:58:35.195Z,41.00
2023-04-12T01:59:35.234Z,41.02
2023-04-12T02:00:35.290Z,41.01
2023-04-12T02:01:35.469Z,41.01
2023-04-12T02:02:35.523Z,40.95
2023-04-12T02:03:35.493Z,40.97
2023-04-12T02:04:35.440Z,40.96
2023-04-12T02:05:35.484Z,40.95
2023-04-12T02:06:35.536Z,40.92
2023-04-12T02:07:35.565Z,40.93
2023-04-12T02:08:35.609Z,40.93
2023-04-12T02:09:35.636Z,40.94
2023-04-12T02:10:35.680Z,40.93
2023-04-12T02:11:35.733Z,40.90
2023-04-12T02:12:35.764Z,40.92
2023-04-12T02:13:35.816Z,40.90
2023-04-12T02:14:35.873Z,40.90
2023-04-12T02:15:35.884Z,40.87
2023-04-12T02:16:35.973Z,40.87
2023-04-12T02:17:35.975Z,40.86
2023-04-12T02:18:35.987Z,40.86
2023-04-12T02:19:36.030Z,40.85
2023-04-12T02:20:36.086Z,40.84
2023-04-12T02:21:36.107Z,40.84
2023-04-12T02:22:36.138Z,40.81
2023-04-12T02:23:36.174Z,40.84
2023-04-12T02:24:36.217Z,40.83
2023-04-12T02:25:36.252Z,40.81
2023-04-12T02:26:36.304Z,40.79
2023-04-12T02:27:36.337Z,40.84
2023-04-12T02:28:36.563Z,40.81
2023-04-12T02:29:36.386Z,40.79
2023-04-12T02:30:36.441Z,40.78
2023-04-12T02:31:36.461Z,40.74
2023-04-12T02:32:36.529Z,40.78
2023-04-12T02:33:36.536Z,40.75
2023-04-12T02:34:36.768Z,40.76
2023-04-12T02:35:36.636Z,40.72
2023-04-12T02:36:36.633Z,40.73
2023-04-12T02:37:36.664Z,40.73
2023-04-12T02:38:36.702Z,40.74
2023-04-12T02:39:36.727Z,40.73
2023-04-12T02:40:36.769Z,40.71
2023-04-12T02:41:36.802Z,40.69
2023-04-12T02:42:36.845Z,40.72
2023-04-12T02:43:36.874Z,40.71
2023-04-12T02:44:36.915Z,40.71
2023-04-12T02:45:36.951Z,40.69
2023-04-12T02:46:37.012Z,40.68
2023-04-12T02:47:37.016Z,40.68
2023-04-12T02:48:37.047Z,40.65
2023-04-12T02:49:37.091Z,40.68
2023-04-12T02:50:37.122Z,40.67
2023-04-12T02:51:37.170Z,40.64
2023-04-12T02:52:37.202Z,40.65
2023-04-12T02:53:37.224Z,40.66
2023-04-12T02:54:37.267Z,40.64
2023-04-12T02:55:37.306Z,40.64
2023-04-12T02:56:37.350Z,40.65
2023-04-12T02:57:37.382Z,40.62
2023-04-12T02:58:37.408Z,40.63
2023-04-12T02:59:37.447Z,40.62
2023-04-12T03:00:37.474Z,40.62
2023-04-12T03:01:37.577Z,40.61
2023-04-12T03:02:37.722Z,40.60
2023-04-12T03:03:37.706Z,40.60
2023-04-12T03:04:37.616Z,40.60
2023-04-12T03:05:37.647Z,40.58
2023-04-12T03:06:37.686Z,40.58
2023-04-12T03:07:37.726Z,40.58
2023-04-12T03:08:37.737Z,40.60
2023-04-12T03:09:37.773Z,40.58
2023-04-12T03:10:37.806Z,40.57
2023-04-12T03:11:37.822Z,40.59
2023-04-12T03:12:37.865Z,40.57
2023-04-12T03:13:37.901Z,40.56
2023-04-12T03:14:37.937Z,40.56
2023-04-12T03:15:37.972Z,40.54
2023-04-12T03:16:37.998Z,40.56
2023-04-12T03:17:38.077Z,40.52
2023-04-12T03:18:38.051Z,40.52
2023-04-12T03:19:38.080Z,40.53
2023-04-12T03:20:38.116Z,40.50
2023-04-12T03:21:38.159Z,40.51
2023-04-12T03:22:38.188Z,40.51
2023-04-12T03:23:38.207Z,40.52
2023-04-12T03:24:38.238Z,40.52
2023-04-12T03:25:38.280Z,40.50
2023-04-12T03:26:38.303Z,40.50
2023-04-12T03:27:38.330Z,40.53
2023-04-12T03:28:38.364Z,40.49
2023-04-12T03:29:38.395Z,40.49
2023-04-12T03:30:38.429Z,40.48
2023-04-12T03:31:38.593Z,40.48
2023-04-12T03:32:38.510Z,40.47
2023-04-12T03:33:38.531Z,40.49
2023-04-12T03:34:38.560Z,40.47
2023-04-12T03:35:38.637Z,40.45
2023-04-12T03:36:38.633Z,40.48
2023-04-12T03:37:38.646Z,40.45
2023-04-12T03:38:38.674Z,40.47
2023-04-12T03:39:38.694Z,40.44
2023-04-12T03:40:38.710Z,40.46
2023-04-12T03:41:38.760Z,40.45
2023-04-12T03:42:38.778Z,40.43
2023-04-12T03:43:38.809Z,40.45
2023-04-12T03:44:38.829Z,40.43
2023-04-12T03:45:38.860Z,40.42
2023-04-12T03:46:38.912Z,40.44
2023-04-12T03:47:38.993Z,40.42
2023-04-12T03:48:38.938Z,40.41
2023-04-12T03:49:38.971Z,40.40
2023-04-12T03:50:38.996Z,40.38
2023-04-12T03:51:39.020Z,40.42
2023-04-12T03:52:39.099Z,40.40
2023-04-12T03:53:39.078Z,40.38
2023-04-12T03:54:39.109Z,40.38
2023-04-12T03:55:39.137Z,40.38
2023-04-12T03:56:39.170Z,40.38
2023-04-12T03:57:39.199Z,40.37
2023-04-12T03:58:39.238Z,40.37
2023-04-12T03:59:39.261Z,40.35
2023-04-12T04:00:39.281Z,40.37
2023-04-12T04:01:39.326Z,40.37
2023-04-12T04:02:39.418Z,40.37
2023-04-12T04:03:39.542Z,40.38
2023-04-12T04:04:39.408Z,40.37
2023-04-12T04:05:39.442Z,40.37
2023-04-12T04:06:39.480Z,40.37
2023-04-12T04:07:39.496Z,40.34
2023-04-12T04:08:39.529Z,40.35
2023-04-12T04:09:39.563Z,40.34
2023-04-12T04:10:39.596Z,40.31
2023-04-12T04:11:39.629Z,40.30
2023-04-12T04:12:39.659Z,40.32
2023-04-12T04:13:39.697Z,40.34
2023-04-12T04:14:39.723Z,40.33
2023-04-12T04:15:39.745Z,40.31
2023-04-12T04:16:39.797Z,40.30
2023-04-12T04:17:39.842Z,40.32
2023-04-12T04:18:39.861Z,40.32
2023-04-12T04:19:39.873Z,40.34
2023-04-12T04:20:39.915Z,40.31
2023-04-12T04:21:39.958Z,40.30
2023-04-12T04:22:39.966Z,40.32
2023-04-12T04:23:40.010Z,40.29
2023-04-12T04:24:40.061Z,40.32
2023-04-12T04:25:40.076Z,40.30
2023-04-12T04:26:40.096Z,40.28
2023-04-12T04:27:40.130Z,40.26
2023-04-12T04:28:40.166Z,40.29
2023-04-12T04:29:40.192Z,40.24
2023-04-12T04:30:40.222Z,40.28
2023-04-12T04:31:40.293Z,40.26
2023-04-12T04:32:40.299Z,40.23
2023-04-12T04:33:40.330Z,40.24
2023-04-12T04:34:40.364Z,40.25
2023-04-12T04:35:40.416Z,40.24
2023-04-12T04:36:40.417Z,40.24
2023-04-12T04:37:40.458Z,40.22
2023-04-12T04:38:40.513Z,40.23
2023-04-12T04:39:40.496Z,40.23
2023-04-12T04:40:40.534Z,40.23
2023-04-12T04:41:40.572Z,40.22
2023-04-12T04:42:40.590Z,40.22
2023-04-12T04:43:40.630Z,40.21
2023-04-12T04:44:40.661Z,40.22
2023-04-12T04:45:40.720Z,40.21
2023-04-12T04:46:40.709Z,40.20
2023-04-12T04:47:40.808Z,40.21
2023-04-12T04:48:40.768Z,40.19
2023-04-12T04:49:40.802Z,40.17
2023-04-12T04:50:40.821Z,40.16
2023-04-12T04:51:40.839Z,40.16
2023-04-12T04:52:40.889Z,40.18
2023-04-12T04:53:40.923Z,40.16
2023-04-12T04:54:40.934Z,40.16
2023-04-12T04:55:40.960Z,40.14
2023-04-12T04:56:41.003Z,40.15
2023-04-12T04:57:41.020Z,40.16
2023-04-12T04:58:41.045Z,40.14
2023-04-12T04:59:41.068Z,40.13
2023-04-12T05:00:41.097Z,40.15
2023-04-12T05:01:41.316Z,40.15
2023-04-12T05:02:41.351Z,40.13
2023-04-12T05:03:41.291Z,40.13
2023-04-12T05:04:41.196Z,40.15
2023-04-12T05:05:41.225Z,40.13
2023-04-12T05:06:41.247Z,40.15
2023-04-12T05:07:41.274Z,40.12
2023-04-12T05:08:41.301Z,40.12
2023-04-12T05:09:41.307Z,40.11
2023-04-12T05:10:41.382Z,40.11
2023-04-12T05:11:41.404Z,40.13
2023-04-12T05:12:41.404Z,40.11
2023-04-12T05:13:41.422Z,40.10
2023-04-12T05:14:47.097Z,40.13
2023-04-12T05:15:42.446Z,40.12
2023-04-12T05:16:41.499Z,40.07
2023-04-12T05:17:41.444Z,40.09
2023-04-12T05:18:41.431Z,40.09
2023-04-12T05:19:41.432Z,40.08
2023-04-12T05:20:41.419Z,40.09
2023-04-12T05:21:41.406Z,40.11
2023-04-12T05:22:41.399Z,40.71
2023-04-12T05:23:41.394Z,41.53
2023-04-12T05:24:41.391Z,41.37
2023-04-12T05:25:41.399Z,41.22
2023-04-12T05:26:41.430Z,41.59
2023-04-12T05:27:41.414Z,41.72
2023-04-12T05:28:41.412Z,41.54
2023-04-12T05:29:41.388Z,41.60
2023-04-12T05:30:41.423Z,41.66
2023-04-12T05:31:41.424Z,41.54
2023-04-12T05:32:42.210Z,41.36
2023-04-12T05:33:41.393Z,41.52
2023-04-12T05:34:41.442Z,41.54
2023-04-12T05:35:42.284Z,41.62
2023-04-12T05:36:41.383Z,41.67
2023-04-12T05:37:41.373Z,41.73
2023-04-12T05:38:41.368Z,41.79
2023-04-12T05:39:41.364Z,41.75
2023-04-12T05:40:41.366Z,41.87
2023-04-12T05:41:41.368Z,41.90
2023-04-12T05:42:41.375Z,41.97
2023-04-12T05:43:41.380Z,42.01
2023-04-12T05:44:41.400Z,42.16
2023-04-12T05:45:41.479Z,42.18
2023-04-12T05:46:41.581Z,42.16
2023-04-12T05:47:41.530Z,42.21
2023-04-12T05:48:41.485Z,42.09
2023-04-12T05:49:41.529Z,42.20
2023-04-12T05:50:41.583Z,42.19
2023-04-12T05:51:41.925Z,42.20
2023-04-12T05:52:41.577Z,42.26
2023-04-12T05:53:41.609Z,42.34
2023-04-12T05:54:41.664Z,42.40
2023-04-12T05:55:41.641Z,42.35
2023-04-12T05:56:41.661Z,42.31
2023-04-12T05:57:41.698Z,42.41
2023-04-12T05:58:41.704Z,42.40
2023-04-12T05:59:41.722Z,42.39
2023-04-12T06:00:41.754Z,42.48
2023-04-12T06:01:41.784Z,42.43
2023-04-12T06:02:41.921Z,42.49
2023-04-12T06:03:42.010Z,42.44
2023-04-12T06:04:50.254Z,42.45
2023-04-12T06:05:42.861Z,42.49
2023-04-12T06:06:41.822Z,42.43
2023-04-12T06:07:41.802Z,42.46
2023-04-12T06:08:41.802Z,42.39
2023-04-12T06:09:41.782Z,42.46
2023-04-12T06:10:41.783Z,42.44
2023-04-12T06:11:41.821Z,42.41
2023-04-12T06:12:41.753Z,42.40
2023-04-12T06:13:41.759Z,42.35
2023-04-12T06:14:41.750Z,42.30
2023-04-12T06:15:41.752Z,42.30
2023-04-12T06:16:42.314Z,42.32
2023-04-12T06:17:41.761Z,42.23
2023-04-12T06:18:41.732Z,42.33
2023-04-12T06:19:41.711Z,42.30
2023-04-12T06:20:42.284Z,42.30
2023-04-12T06:21:41.722Z,42.27
2023-04-12T06:22:41.690Z,42.29
2023-04-12T06:23:41.701Z,42.29
2023-04-12T06:24:41.707Z,42.24
2023-04-12T06:25:41.725Z,42.87
2023-04-12T06:26:41.745Z,42.88
2023-04-12T06:27:41.848Z,43.30
2023-04-12T06:28:41.754Z,44.05
2023-04-12T06:29:42.709Z,44.37
2023-04-12T06:30:41.743Z,45.14
2023-04-12T06:31:41.805Z,45.64
2023-04-12T06:32:41.735Z,45.65
2023-04-12T06:33:41.736Z,45.99
2023-04-12T06:34:41.740Z,46.25
2023-04-12T06:35:41.875Z,46.44
2023-04-12T06:36:41.808Z,46.86
2023-04-12T06:37:41.864Z,47.47
2023-04-12T06:38:42.851Z,47.00
2023-04-12T06:39:41.960Z,47.10
2023-04-12T06:40:42.015Z,46.98
2023-04-12T06:41:42.074Z,47.05
2023-04-12T06:42:42.109Z,47.53
2023-04-12T06:43:42.149Z,47.82
2023-04-12T06:44:42.196Z,48.22
2023-04-12T06:45:42.230Z,47.77
2023-04-12T06:46:42.293Z,47.72
2023-04-12T06:47:42.406Z,47.57
2023-04-12T06:48:42.367Z,47.74
2023-04-12T06:49:42.399Z,47.73
2023-04-12T06:50:42.413Z,47.92
2023-04-12T06:51:42.462Z,48.15
2023-04-12T06:52:42.489Z,48.26
2023-04-12T06:53:42.524Z,48.18
2023-04-12T06:54:42.641Z,48.42
2023-04-12T06:55:42.566Z,48.30
2023-04-12T06:56:42.610Z,48.28
2023-04-12T06:57:42.648Z,48.36
2023-04-12T06:58:42.655Z,48.41
2023-04-12T06:59:42.696Z,48.43
2023-04-12T07:00:42.732Z,48.58
2023-04-12T07:01:43.580Z,48.73
2023-04-12T07:02:42.946Z,48.84
2023-04-12T07:03:43.050Z,48.83
2023-04-12T07:04:42.840Z,49.00
2023-04-12T07:05:42.882Z,49.07
2023-04-12T07:06:42.902Z,49.01
2023-04-12T07:07:42.940Z,49.05
2023-04-12T07:08:42.945Z,49.13
2023-04-12T07:09:42.972Z,49.24
2023-04-12T07:10:42.991Z,49.40
2023-04-12T07:11:43.008Z,49.58
2023-04-12T07:12:43.021Z,49.49
2023-04-12T07:13:43.044Z,49.47
2023-04-12T07:14:44.630Z,49.67
2023-04-12T07:15:43.069Z,46.43
2023-04-12T07:16:43.128Z,44.60
2023-04-12T07:17:43.165Z,45.20
2023-04-12T07:18:43.170Z,42.43
2023-04-12T07:19:43.212Z,40.72
2023-04-12T07:20:43.225Z,39.79
2023-04-12T07:21:43.256Z,38.77
2023-04-12T07:22:43.304Z,39.16
2023-04-12T07:23:43.373Z,39.61
2023-04-12T07:24:43.453Z,39.89
2023-04-12T07:25:43.530Z,40.78
2023-04-12T07:26:43.583Z,41.41
2023-04-12T07:27:43.668Z,42.01
2023-04-12T07:28:43.691Z,41.99
2023-04-12T07:29:43.705Z,42.51
2023-04-12T07:30:43.729Z,42.74
2023-04-12T07:31:43.725Z,42.94
2023-04-12T07:32:43.767Z,43.22
2023-04-12T07:33:43.825Z,43.44
2023-04-12T07:34:43.878Z,43.44
2023-04-12T07:35:43.890Z,43.49
2023-04-12T07:36:43.904Z,43.59
2023-04-12T07:37:43.938Z,43.59
2023-04-12T07:38:44.007Z,43.78
2023-04-12T07:39:44.043Z,43.79
2023-04-12T07:40:44.067Z,43.94
2023-04-12T07:41:44.078Z,43.95
2023-04-12T07:42:44.109Z,44.05
2023-04-12T07:43:44.133Z,44.13
2023-04-12T07:44:44.161Z,44.24
2023-04-12T07:45:44.245Z,44.34
2023-04-12T07:46:44.195Z,44.41
2023-04-12T07:47:44.301Z,44.44
2023-04-12T07:48:44.224Z,44.52
2023-04-12T07:49:44.222Z,44.56
2023-04-12T07:50:44.215Z,44.80
2023-04-12T07:51:44.214Z,44.90
2023-04-12T07:52:44.245Z,44.95
2023-04-12T07:53:44.222Z,45.09
2023-04-12T07:54:44.221Z,45.15
2023-04-12T07:55:44.234Z,45.39
2023-04-12T07:56:44.212Z,45.24
2023-04-12T07:57:44.249Z,45.42
2023-04-12T07:58:44.203Z,45.74
2023-04-12T07:59:44.190Z,45.83
2023-04-12T08:00:44.184Z,45.88
2023-04-12T08:01:44.197Z,46.05
2023-04-12T08:02:44.294Z,46.06
2023-04-12T08:03:44.264Z,46.12
2023-04-12T08:04:44.161Z,46.29
2023-04-12T08:05:44.166Z,46.41
2023-04-12T08:06:44.101Z,46.43
2023-04-12T08:07:44.091Z,46.58
2023-04-12T08:08:44.075Z,46.65
2023-04-12T08:09:44.048Z,46.78
2023-04-12T08:10:44.034Z,47.25
2023-04-12T08:11:44.012Z,46.78
2023-04-12T08:12:44.005Z,47.00
2023-04-12T08:13:44.070Z,47.03
2023-04-12T08:14:44.407Z,46.49
2023-04-12T08:15:43.991Z,46.80
2023-04-12T08:16:43.915Z,46.43
2023-04-12T08:17:44.002Z,45.78
2023-04-12T08:18:43.889Z,46.44
2023-04-12T08:19:43.854Z,46.45
2023-04-12T08:20:43.859Z,46.02
2023-04-12T08:21:43.790Z,46.07
2023-04-12T08:22:43.767Z,45.94
2023-04-12T08:23:43.740Z,46.22
2023-04-12T08:24:43.804Z,46.04
2023-04-12T08:25:43.697Z,45.14
2023-04-12T08:26:43.645Z,45.21
2023-04-12T08:27:43.626Z,45.66
2023-04-12T08:28:43.592Z,45.95
2023-04-12T08:29:43.647Z,46.19
2023-04-12T08:30:43.542Z,46.09
2023-04-12T08:31:43.574Z,46.19
2023-04-12T08:32:43.595Z,46.26
2023-04-12T08:33:43.473Z,46.35
2023-04-12T08:34:44.869Z,46.35
2023-04-12T08:35:43.694Z,46.42
2023-04-12T08:36:43.591Z,46.66
2023-04-12T08:37:43.576Z,46.64
2023-04-12T08:38:46.252Z,46.89
2023-04-12T08:39:43.504Z,46.99
2023-04-12T08:40:43.479Z,47.07
2023-04-12T08:41:43.453Z,47.18
2023-04-12T08:42:43.399Z,47.17
2023-04-12T08:43:43.371Z,47.76
2023-04-12T08:44:43.335Z,47.63
2023-04-12T08:45:43.305Z,47.68
2023-04-12T08:46:43.294Z,47.62
2023-04-12T08:47:43.316Z,47.92
2023-04-12T08:48:43.192Z,47.87
2023-04-12T08:49:43.158Z,47.99
2023-04-12T08:50:43.121Z,48.11
2023-04-12T08:51:43.082Z,48.33
2023-04-12T08:52:43.063Z,48.20
2023-04-12T08:53:43.056Z,48.40
2023-04-12T08:54:42.984Z,48.64
2023-04-12T08:55:42.938Z,48.86
2023-04-12T08:56:42.906Z,48.74
2023-04-12T08:57:42.863Z,48.58
2023-04-12T08:58:42.828Z,48.84
2023-04-12T08:59:42.760Z,48.98
2023-04-12T09:00:42.720Z,48.88
2023-04-12T09:01:42.800Z,49.06
2023-04-12T09:02:42.888Z,49.06
2023-04-12T09:03:42.705Z,49.15
2023-04-12T09:04:42.753Z,49.16
2023-04-12T09:05:42.540Z,49.36
2023-04-12T09:06:42.469Z,49.51
2023-04-12T09:09:01.520Z,49.93
2023-04-12T09:10:01.455Z,49.81
2023-04-12T09:11:01.431Z,49.91
2023-04-12T09:12:01.412Z,49.98
2023-04-12T09:13:01.453Z,50.12
2023-04-12T09:14:08.406Z,50.40
2023-04-12T09:15:01.389Z,50.24
2023-04-12T09:16:01.384Z,50.70
2023-04-12T09:17:01.398Z,50.57
2023-04-12T09:18:01.380Z,50.39
2023-04-12T09:19:01.370Z,50.51
2023-04-12T09:20:01.348Z,50.36
2023-04-12T09:21:01.342Z,50.35
2023-04-12T09:22:01.337Z,50.35
2023-04-12T09:23:01.337Z,50.31
2023-04-12T09:24:01.332Z,50.31
2023-04-12T09:25:01.317Z,50.37
2023-04-12T09:26:01.310Z,50.41
2023-04-12T09:27:01.303Z,50.42
2023-04-12T09:28:01.291Z,50.44
2023-04-12T09:29:01.320Z,50.49
2023-04-12T09:30:01.319Z,50.55
2023-04-12T09:31:01.345Z,50.57
2023-04-12T09:32:01.320Z,50.59
2023-04-12T09:33:01.341Z,50.64
2023-04-12T09:34:01.300Z,50.62
2023-04-12T09:35:01.305Z,50.64
2023-04-12T09:36:01.369Z,50.62
2023-04-12T09:37:02.157Z,50.65
2023-04-12T09:38:01.278Z,50.63
2023-04-12T09:39:01.285Z,50.62
2023-04-12T09:40:01.286Z,50.64
2023-04-12T09:41:01.321Z,50.66
2023-04-12T09:42:01.339Z,50.67
2023-04-12T09:43:01.410Z,50.62
2023-04-12T09:44:01.464Z,50.65
2023-04-12T09:45:01.686Z,50.64
2023-04-12T09:46:01.614Z,50.61
2023-04-12T09:47:01.630Z,50.67
2023-04-12T09:48:01.773Z,50.69
2023-04-12T09:49:01.740Z,50.68
2023-04-12T09:50:01.752Z,50.69
2023-04-12T09:51:01.769Z,50.67
2023-04-12T09:52:01.898Z,50.68
2023-04-12T09:53:01.917Z,50.67
2023-04-12T09:54:01.956Z,50.67
2023-04-12T09:55:02.003Z,50.67
2023-04-12T09:56:02.011Z,50.65
2023-04-12T09:57:02.048Z,50.67
2023-04-12T09:58:02.107Z,50.61
2023-04-12T09:59:02.188Z,50.58
2023-04-12T10:00:02.181Z,50.54
2023-04-12T10:01:02.230Z,50.60
2023-04-12T10:02:02.333Z,50.54
2023-04-12T10:03:02.413Z,50.49
2023-04-12T10:04:02.996Z,50.43
2023-04-12T10:05:02.471Z,50.46
2023-04-12T10:06:02.407Z,50.41
2023-04-12T10:07:02.451Z,50.32
2023-04-12T10:08:02.495Z,50.32
2023-04-12T10:09:02.531Z,50.28
2023-04-12T10:10:02.613Z,50.25
2023-04-12T10:11:02.691Z,50.24
2023-04-12T10:12:02.732Z,50.22
2023-04-12T10:13:02.829Z,50.24
2023-04-12T10:14:02.865Z,50.19
2023-04-12T10:15:02.940Z,50.19
2023-04-12T10:16:03.063Z,50.13
2023-04-12T10:17:03.099Z,50.09
2023-04-12T10:18:03.231Z,50.08
2023-04-12T10:19:03.246Z,50.04
2023-04-12T10:20:03.352Z,50.04
2023-04-12T10:21:03.428Z,49.95
2023-04-12T10:22:03.636Z,49.92
2023-04-12T10:23:03.549Z,49.89
2023-04-12T10:24:03.574Z,49.86
2023-04-12T10:25:03.629Z,49.85
2023-04-12T10:26:03.679Z,49.83
2023-04-12T10:27:03.733Z,49.77
2023-04-12T10:28:03.820Z,49.78
2023-04-12T10:29:03.886Z,49.71
2023-04-12T10:30:03.933Z,49.72
2023-04-12T10:31:04.046Z,49.63
2023-04-12T10:32:04.078Z,49.60
2023-04-12T10:33:04.194Z,49.57
2023-04-12T10:34:04.189Z,49.53
2023-04-12T10:35:04.264Z,49.51
2023-04-12T10:36:04.525Z,49.50
2023-04-12T10:37:04.446Z,49.48
2023-04-12T10:38:04.592Z,49.43
2023-04-12T10:39:04.579Z,49.42
2023-04-12T10:40:04.676Z,49.38
2023-04-12T10:41:04.726Z,49.37
2023-04-12T10:42:04.799Z,49.35
2023-04-12T10:43:04.906Z,49.35
2023-04-12T10:44:04.952Z,49.33
2023-04-12T10:45:05.012Z,49.33
2023-04-12T10:46:05.158Z,49.29
2023-04-12T10:47:05.721Z,49.25
2023-04-12T10:48:05.224Z,49.24
2023-04-12T10:49:05.275Z,49.20
2023-04-12T10:50:06.098Z,49.15
2023-04-12T10:51:05.411Z,49.13
2023-04-12T10:52:05.520Z,49.08
2023-04-12T10:53:05.597Z,49.06
2023-04-12T10:54:05.622Z,49.04
2023-04-12T10:55:05.693Z,49.00
2023-04-12T10:56:05.757Z,48.95
2023-04-12T10:57:05.830Z,48.96
2023-04-12T10:58:05.900Z,48.91
2023-04-12T10:59:06.077Z,48.88
2023-04-12T11:00:06.043Z,48.89
2023-04-12T11:01:06.279Z,48.88
2023-04-12T11:02:06.300Z,48.85
2023-04-12T11:03:06.356Z,48.82
2023-04-12T11:04:06.553Z,48.75
2023-04-12T11:05:06.466Z,48.74
2023-04-12T11:06:23.825Z,48.77
2023-04-12T11:07:07.463Z,48.73
2023-04-12T11:08:06.468Z,48.67
2023-04-12T11:09:06.530Z,48.64
2023-04-12T11:10:06.471Z,48.60
2023-04-12T11:11:06.502Z,48.55
2023-04-12T11:12:08.186Z,48.52
2023-04-12T11:13:06.475Z,48.52
2023-04-12T11:14:06.494Z,48.48
2023-04-12T11:15:06.484Z,48.46
2023-04-12T11:16:06.572Z,48.39
2023-04-12T11:17:06.573Z,48.35
2023-04-12T11:18:06.523Z,48.35
2023-04-12T11:19:06.537Z,48.31
2023-04-12T11:20:06.490Z,48.33
2023-04-12T11:21:06.577Z,48.30
2023-04-12T11:22:06.507Z,48.28
2023-04-12T11:23:07.512Z,48.27
2023-04-12T11:24:06.530Z,48.24
2023-04-12T11:25:06.497Z,48.21
2023-04-12T11:26:06.495Z,48.23
2023-04-12T11:27:06.496Z,48.19
2023-04-12T11:28:17.308Z,48.18
2023-04-12T11:29:08.110Z,48.17
2023-04-12T11:30:06.495Z,48.17
2023-04-12T11:31:06.594Z,48.12
2023-04-12T11:32:06.576Z,48.09
2023-04-12T11:33:06.538Z,48.07
2023-04-12T11:34:06.497Z,48.09
2023-04-12T11:35:06.487Z,48.01
2023-04-12T11:36:06.488Z,48.01
2023-04-12T11:37:06.480Z,47.99
2023-04-12T11:38:06.468Z,48.00
2023-04-12T11:39:06.494Z,47.99
2023-04-12T11:40:06.537Z,47.92
2023-04-12T11:41:06.581Z,47.94
2023-04-12T11:42:06.642Z,47.90
2023-04-12T11:43:06.739Z,47.89
2023-04-12T11:44:06.693Z,47.89
2023-04-12T11:45:14.344Z,47.87
2023-04-12T11:46:07.825Z,47.89
2023-04-12T11:47:06.694Z,47.86
2023-04-12T11:48:06.782Z,47.88
2023-04-12T11:49:06.707Z,47.84
2023-04-12T11:50:06.702Z,47.80
2023-04-12T11:51:11.345Z,47.80
2023-04-12T11:52:07.713Z,47.77
2023-04-12T11:53:06.700Z,47.74
2023-04-12T11:54:06.690Z,47.72
2023-04-12T11:55:08.627Z,47.68
2023-04-12T11:56:06.691Z,47.69
2023-04-12T11:57:06.707Z,47.65
2023-04-12T11:58:06.747Z,47.67
2023-04-12T11:59:06.706Z,47.67
2023-04-12T12:00:07.011Z,47.65
2023-04-12T12:01:06.691Z,47.66
2023-04-12T12:02:21.223Z,47.68
2023-04-12T12:03:08.846Z,47.67
2023-04-12T12:04:07.006Z,47.68
2023-04-12T12:05:07.890Z,47.65
2023-04-12T12:06:06.990Z,47.62
2023-04-12T12:07:07.003Z,47.57
2023-04-12T12:08:06.846Z,47.56
2023-04-12T12:09:06.877Z,47.56
2023-04-12T12:10:06.909Z,47.55
2023-04-12T12:11:08.727Z,47.54
2023-04-12T12:12:07.020Z,47.50
2023-04-12T12:13:07.060Z,47.47
2023-04-12T12:14:07.106Z,47.44
2023-04-12T12:15:07.210Z,47.43
2023-04-12T12:16:07.259Z,47.42
2023-04-12T12:17:07.211Z,47.39
2023-04-12T12:18:07.293Z,47.39
2023-04-12T12:19:07.301Z,47.35
2023-04-12T12:20:07.364Z,47.30
2023-04-12T12:21:07.431Z,47.30
2023-04-12T12:22:07.476Z,47.24
2023-04-12T12:23:07.538Z,47.21
2023-04-12T12:24:07.593Z,47.17
2023-04-12T12:25:07.663Z,47.19
2023-04-12T12:26:18.535Z,47.17
2023-04-12T12:27:08.800Z,47.12
2023-04-12T12:28:07.822Z,47.14
2023-04-12T12:29:07.712Z,47.13
2023-04-12T12:30:07.731Z,47.08
2023-04-12T12:31:07.717Z,47.07
2023-04-12T12:32:07.705Z,47.03
2023-04-12T12:33:07.839Z,47.05
2023-04-12T12:34:09.388Z,47.00
2023-04-12T12:35:07.701Z,46.98
2023-04-12T12:36:07.779Z,46.99
2023-04-12T12:37:07.816Z,46.98
2023-04-12T12:38:07.870Z,46.98
2023-04-12T12:39:07.983Z,46.96
2023-04-12T12:40:08.016Z,46.94
2023-04-12T12:41:08.070Z,46.92
2023-04-12T12:42:08.109Z,46.89
2023-04-12T12:43:08.176Z,46.89
2023-04-12T12:44:08.535Z,46.90
2023-04-12T12:45:08.291Z,46.89
2023-04-12T12:46:08.431Z,46.91
2023-04-12T12:47:14.056Z,46.92
2023-04-12T12:48:09.508Z,46.86
2023-04-12T12:49:08.426Z,46.89
2023-04-12T12:50:08.490Z,46.85
2023-04-12T12:51:08.440Z,46.82
2023-04-12T12:52:08.438Z,46.82
2023-04-12T12:53:08.438Z,46.78
2023-04-12T12:54:08.436Z,46.74